createdAt,value
2022-09-13T00:01:36.933Z,15.11
2022-09-13T00:04:03.983Z,14.97
2022-09-13T00:06:30.615Z,14.82
2022-09-13T00:08:57.034Z,14.85
2022-09-13T00:11:23.919Z,14.89
2022-09-13T00:13:50.403Z,14.93
2022-09-13T00:16:17.016Z,14.96
2022-09-13T00:18:43.753Z,14.99
2022-09-13T00:21:10.163Z,14.88
2022-09-13T00:23:36.585Z,14.75
2022-09-13T00:26:03.200Z,14.81
2022-09-13T00:28:29.635Z,14.74
2022-09-13T00:30:56.090Z,14.57
2022-09-13T00:33:22.550Z,14.42
2022-09-13T00:35:49.044Z,14.42
2022-09-13T00:38:15.396Z,14.55
2022-09-13T00:40:41.978Z,14.50
2022-09-13T00:43:08.436Z,14.57
2022-09-13T00:45:34.895Z,14.42
2022-09-13T00:48:01.605Z,14.04
2022-09-13T00:50:28.012Z,14.24
2022-09-13T00:52:54.441Z,14.41
2022-09-13T00:55:20.959Z,14.51
2022-09-13T00:57:47.516Z,14.36
2022-09-13T01:00:14.015Z,14.36
2022-09-13T01:02:40.913Z,14.23
2022-09-13T01:05:07.348Z,14.26
2022-09-13T01:07:34.040Z,14.29
2022-09-13T01:10:00.620Z,13.97
2022-09-13T01:12:27.096Z,14.04
2022-09-13T01:14:53.518Z,14.17
2022-09-13T01:17:20.230Z,14.26
2022-09-13T01:19:46.705Z,14.31
2022-09-13T01:22:13.238Z,14.36
2022-09-13T01:24:40.265Z,14.06
2022-09-13T01:27:07.043Z,14.18
2022-09-13T01:29:33.567Z,14.24
2022-09-13T01:32:00.111Z,14.02
2022-09-13T01:34:26.777Z,13.38
2022-09-13T01:36:53.258Z,13.65
2022-09-13T01:39:19.717Z,13.86
2022-09-13T01:41:46.240Z,13.96
2022-09-13T01:44:12.706Z,13.93
2022-09-13T01:46:39.457Z,13.80
2022-09-13T01:49:05.972Z,13.84
2022-09-13T01:51:32.439Z,13.87
2022-09-13T01:53:59.090Z,13.99
2022-09-13T01:56:25.551Z,14.03
2022-09-13T01:58:51.909Z,14.08
2022-09-13T02:01:18.871Z,14.11
2022-09-13T02:03:45.334Z,14.01
2022-09-13T02:06:11.864Z,13.93
2022-09-13T02:08:38.592Z,14.00
2022-09-13T02:11:05.069Z,14.03
2022-09-13T02:13:31.531Z,14.05
2022-09-13T02:16:00.096Z,13.65
2022-09-13T02:18:26.683Z,13.71
2022-09-13T02:20:53.199Z,13.83
2022-09-13T02:23:20.089Z,13.84
2022-09-13T02:25:46.817Z,13.74
2022-09-13T02:28:13.205Z,13.71
2022-09-13T02:30:39.774Z,13.72
2022-09-13T02:33:06.344Z,13.60
2022-09-13T02:35:32.892Z,13.70
2022-09-13T02:37:59.272Z,13.79
2022-09-13T02:40:25.699Z,13.80
2022-09-13T02:42:52.075Z,13.84
2022-09-13T02:45:18.865Z,13.83
2022-09-13T02:47:45.320Z,13.79
2022-09-13T02:50:11.896Z,13.80
2022-09-13T02:52:38.639Z,13.55
2022-09-13T02:55:05.059Z,13.59
2022-09-13T02:57:31.425Z,13.66
2022-09-13T02:59:58.013Z,13.69
2022-09-13T03:02:24.556Z,13.69
2022-09-13T03:04:50.975Z,13.59
2022-09-13T03:07:18.056Z,13.54
2022-09-13T03:09:44.442Z,13.42
2022-09-13T03:12:11.056Z,13.44
2022-09-13T03:14:37.733Z,13.30
2022-09-13T03:17:04.147Z,13.39
2022-09-13T03:19:30.519Z,13.47
2022-09-13T03:21:57.264Z,13.46
2022-09-13T03:24:23.590Z,13.35
2022-09-13T03:26:49.943Z,13.34
2022-09-13T03:29:16.463Z,13.09
2022-09-13T03:31:42.879Z,13.23
2022-09-13T03:34:09.277Z,13.29
2022-09-13T03:36:35.864Z,13.30
2022-09-13T03:39:02.582Z,13.27
2022-09-13T03:41:29.293Z,13.27
2022-09-13T03:43:56.061Z,13.26
2022-09-13T03:46:22.461Z,13.30
2022-09-13T03:48:48.959Z,13.10
2022-09-13T03:51:16.110Z,13.09
2022-09-13T03:53:42.512Z,12.97
2022-09-13T03:56:09.177Z,12.87
2022-09-13T03:58:35.637Z,12.83
2022-09-13T04:01:02.057Z,12.88
2022-09-13T04:03:28.434Z,12.87
2022-09-13T04:05:54.911Z,12.81
2022-09-13T04:08:21.541Z,12.77
2022-09-13T04:10:48.019Z,12.70
2022-09-13T04:13:14.841Z,12.65
2022-09-13T04:15:41.347Z,12.85
2022-09-13T04:18:08.231Z,12.65
2022-09-13T04:20:34.804Z,12.51
2022-09-13T04:23:01.246Z,12.50
2022-09-13T04:25:27.652Z,12.62
2022-09-13T04:27:54.163Z,12.41
2022-09-13T04:30:20.730Z,12.58
2022-09-13T04:32:47.328Z,12.74
2022-09-13T04:35:13.810Z,12.89
2022-09-13T04:37:40.251Z,12.98
2022-09-13T04:40:06.835Z,13.04
2022-09-13T04:42:33.339Z,13.12
2022-09-13T04:45:00.023Z,13.11
2022-09-13T04:47:26.545Z,13.03
2022-09-13T04:49:55.454Z,13.09
2022-09-13T04:52:21.952Z,13.16
2022-09-13T04:54:48.819Z,12.97
2022-09-13T04:57:16.311Z,12.84
2022-09-13T04:59:42.686Z,12.88
2022-09-13T05:02:09.122Z,12.97
2022-09-13T05:04:36.734Z,13.01
2022-09-13T05:07:03.355Z,12.99
2022-09-13T05:09:34.558Z,13.02
2022-09-13T05:12:01.057Z,13.06
2022-09-13T05:14:27.488Z,13.07
2022-09-13T05:16:54.143Z,13.09
2022-09-13T05:19:20.633Z,13.11
2022-09-13T05:21:47.427Z,13.18
2022-09-13T05:24:13.948Z,13.09
2022-09-13T05:26:40.448Z,13.09
2022-09-13T05:29:07.081Z,13.14
2022-09-13T05:31:33.793Z,13.11
2022-09-13T05:34:02.624Z,12.82
2022-09-13T05:36:30.482Z,12.74
2022-09-13T05:39:18.827Z,12.90
2022-09-13T05:41:43.371Z,13.04
2022-09-13T05:44:13.197Z,13.17
2022-09-13T05:46:40.308Z,13.22
2022-09-13T05:49:06.693Z,13.29
2022-09-13T05:51:33.061Z,13.34
2022-09-13T05:53:59.392Z,13.40
2022-09-13T05:56:25.895Z,13.53
2022-09-13T05:58:53.329Z,13.61
2022-09-13T06:01:19.787Z,13.71
2022-09-13T06:03:46.363Z,13.93
2022-09-13T06:06:12.764Z,14.11
2022-09-13T06:08:39.129Z,14.13
2022-09-13T06:11:05.771Z,14.20
2022-09-13T06:13:32.139Z,14.32
2022-09-13T06:15:58.573Z,14.51
2022-09-13T06:18:27.606Z,14.63
2022-09-13T06:20:54.087Z,14.68
2022-09-13T06:23:20.554Z,14.75
2022-09-13T06:25:47.341Z,14.79
2022-09-13T06:28:13.708Z,14.85
2022-09-13T06:30:40.079Z,14.80
2022-09-13T06:33:06.680Z,14.90
2022-09-13T06:35:33.442Z,15.03
2022-09-13T06:37:59.855Z,15.09
2022-09-13T06:40:27.169Z,15.13
2022-09-13T06:42:53.610Z,15.25
2022-09-13T06:45:20.212Z,15.28
2022-09-13T06:47:46.600Z,15.09
2022-09-13T06:50:13.099Z,15.23
2022-09-13T06:52:39.629Z,15.31
2022-09-13T06:55:08.492Z,15.36
2022-09-13T06:57:38.435Z,15.47
2022-09-13T07:00:04.832Z,15.55
2022-09-13T07:02:31.535Z,15.61
2022-09-13T07:04:57.986Z,15.56
2022-09-13T07:07:24.546Z,15.65
2022-09-13T07:09:51.107Z,15.69
2022-09-13T07:12:20.467Z,15.70
2022-09-13T07:14:47.139Z,15.80
2022-09-13T07:17:13.782Z,15.74
2022-09-13T07:19:40.598Z,15.80
2022-09-13T07:22:07.000Z,15.85
2022-09-13T07:24:33.892Z,15.72
2022-09-13T07:27:00.367Z,15.75
2022-09-13T07:29:26.799Z,15.83
2022-09-13T07:31:53.375Z,15.96
2022-09-13T07:34:19.810Z,15.83
2022-09-13T07:36:46.268Z,16.00
2022-09-13T07:39:16.370Z,16.11
2022-09-13T07:41:44.638Z,15.98
2022-09-13T07:44:11.021Z,15.96
2022-09-13T07:46:37.706Z,15.97
2022-09-13T07:49:04.126Z,16.18
2022-09-13T07:51:30.567Z,16.20
2022-09-13T07:53:57.801Z,16.15
2022-09-13T07:56:24.292Z,16.20
2022-09-13T07:58:51.547Z,16.02
2022-09-13T08:01:18.336Z,16.16
2022-09-13T08:03:44.756Z,16.19
2022-09-13T08:06:11.256Z,16.32
2022-09-13T08:08:37.844Z,16.34
2022-09-13T08:11:04.435Z,16.39
2022-09-13T08:13:31.859Z,16.36
2022-09-13T08:15:58.574Z,16.54
2022-09-13T08:18:25.099Z,16.70
2022-09-13T08:20:51.637Z,16.72
2022-09-13T08:23:18.173Z,16.82
2022-09-13T08:25:44.563Z,16.78
2022-09-13T08:28:11.140Z,16.83
2022-09-13T08:30:37.587Z,16.86
2022-09-13T08:33:03.976Z,16.93
2022-09-13T08:35:30.424Z,16.87
2022-09-13T08:37:56.968Z,16.90
2022-09-13T08:40:23.377Z,16.99
2022-09-13T08:42:49.969Z,17.02
2022-09-13T08:45:16.597Z,17.04
2022-09-13T08:47:42.975Z,17.07
2022-09-13T08:50:09.361Z,16.95
2022-09-13T08:52:36.099Z,16.87
2022-09-13T08:55:02.459Z,16.84
2022-09-13T08:57:28.964Z,16.63
2022-09-13T08:59:55.613Z,16.83
2022-09-13T09:02:22.058Z,16.91
2022-09-13T09:04:48.472Z,16.96
2022-09-13T09:07:14.951Z,16.98
2022-09-13T09:09:41.447Z,16.85
2022-09-13T09:12:07.873Z,16.94
2022-09-13T09:14:34.354Z,16.80
2022-09-13T09:17:03.258Z,16.79
2022-09-13T09:19:29.735Z,17.02
2022-09-13T09:21:56.165Z,16.94
2022-09-13T09:24:22.592Z,17.01
2022-09-13T09:26:49.349Z,17.03
2022-09-13T09:29:16.084Z,17.18
2022-09-13T09:31:43.183Z,17.24
2022-09-13T09:34:09.957Z,17.22
2022-09-13T09:36:37.042Z,17.01
2022-09-13T09:39:03.497Z,17.14
2022-09-13T09:41:29.997Z,16.99
2022-09-13T09:43:56.916Z,17.08
2022-09-13T09:46:23.425Z,17.15
2022-09-13T09:48:49.858Z,17.26
2022-09-13T09:51:16.660Z,17.41
2022-09-13T09:53:43.035Z,17.55
2022-09-13T09:56:09.434Z,17.34
2022-09-13T09:58:36.057Z,17.29
2022-09-13T10:01:02.648Z,17.35
2022-09-13T10:03:29.116Z,17.56
2022-09-13T10:05:55.689Z,17.44
2022-09-13T10:08:22.250Z,17.44
2022-09-13T10:10:48.626Z,17.49
2022-09-13T10:13:15.272Z,17.60
2022-09-13T10:15:41.719Z,17.33
2022-09-13T10:18:21.178Z,17.43
2022-09-13T10:20:54.802Z,17.68
2022-09-13T10:23:21.197Z,17.60
2022-09-13T10:25:50.310Z,17.76
2022-09-13T10:28:16.939Z,17.72
2022-09-13T10:30:43.586Z,17.79
2022-09-13T10:33:10.262Z,17.34
2022-09-13T10:35:36.992Z,17.10
2022-09-13T10:38:03.623Z,16.84
2022-09-13T10:40:30.074Z,16.99
2022-09-13T10:42:56.485Z,17.06
2022-09-13T10:45:22.871Z,17.21
2022-09-13T10:47:50.417Z,17.34
2022-09-13T10:50:17.485Z,17.50
2022-09-13T10:52:46.328Z,17.65
2022-09-13T10:55:14.499Z,17.64
2022-09-13T10:57:41.183Z,17.73
2022-09-13T11:00:12.595Z,17.75
2022-09-13T11:02:40.415Z,17.73
2022-09-13T11:05:07.117Z,17.81
2022-09-13T11:07:33.904Z,17.70
2022-09-13T11:10:03.296Z,17.88
2022-09-13T11:12:30.409Z,18.00
2022-09-13T11:14:57.122Z,18.24
2022-09-13T11:17:24.289Z,18.21
2022-09-13T11:19:55.161Z,18.25
2022-09-13T11:22:24.440Z,18.35
2022-09-13T11:24:51.261Z,18.41
2022-09-13T11:27:18.412Z,18.50
2022-09-13T11:29:44.794Z,18.47
2022-09-13T11:32:11.788Z,18.51
2022-09-13T11:34:38.285Z,18.67
2022-09-13T11:37:05.004Z,18.60
2022-09-13T11:39:31.547Z,18.73
2022-09-13T11:42:01.234Z,18.77
2022-09-13T11:44:29.437Z,18.74
2022-09-13T11:46:56.017Z,18.78
2022-09-13T11:49:22.754Z,18.83
2022-09-13T11:51:49.327Z,18.82
2022-09-13T11:54:15.708Z,18.90
2022-09-13T11:56:42.575Z,18.77
2022-09-13T11:59:13.582Z,18.59
2022-09-13T12:01:42.078Z,18.68
2022-09-13T12:04:08.663Z,18.69
2022-09-13T12:06:35.225Z,18.75
2022-09-13T12:09:01.891Z,18.93
2022-09-13T12:11:28.375Z,18.64
2022-09-13T12:13:54.921Z,18.74
2022-09-13T12:16:21.742Z,18.82
2022-09-13T12:18:48.313Z,18.92
2022-09-13T12:21:14.724Z,19.01
2022-09-13T12:23:41.056Z,19.07
2022-09-13T12:26:07.427Z,19.07
2022-09-13T12:28:33.919Z,18.99
2022-09-13T12:31:00.499Z,19.05
2022-09-13T12:33:26.986Z,19.18
2022-09-13T12:35:53.328Z,19.25
2022-09-13T12:38:19.926Z,19.32
2022-09-13T12:40:46.387Z,19.21
2022-09-13T12:43:12.745Z,19.14
2022-09-13T12:45:39.224Z,19.16
2022-09-13T12:48:05.584Z,19.19
2022-09-13T12:50:47.638Z,19.28
2022-09-13T12:53:14.142Z,19.42
2022-09-13T12:55:46.989Z,19.58
2022-09-13T12:58:14.024Z,19.63
2022-09-13T13:00:40.577Z,19.74
2022-09-13T13:03:07.098Z,19.63
2022-09-13T13:05:33.839Z,19.46
2022-09-13T13:08:00.338Z,18.97
2022-09-13T13:10:26.719Z,19.48
2022-09-13T13:12:53.135Z,19.74
2022-09-13T13:15:19.673Z,19.89
2022-09-13T13:17:46.160Z,20.11
2022-09-13T13:20:12.630Z,20.35
2022-09-13T13:22:39.023Z,20.42
2022-09-13T13:25:05.501Z,20.65
2022-09-13T13:27:32.087Z,20.59
2022-09-13T13:29:58.523Z,20.66
2022-09-13T13:32:24.883Z,20.92
2022-09-13T13:34:51.693Z,20.95
2022-09-13T13:37:18.261Z,21.16
2022-09-13T13:39:45.152Z,21.29
2022-09-13T13:42:11.837Z,21.21
2022-09-13T13:44:38.609Z,19.93
2022-09-13T13:47:05.156Z,20.60
2022-09-13T13:49:32.049Z,20.87
2022-09-13T13:51:58.547Z,20.51
2022-09-13T13:54:25.183Z,20.21
2022-09-13T13:56:51.991Z,19.98
2022-09-13T13:59:18.861Z,19.91
2022-09-13T14:01:45.451Z,19.71
2022-09-13T14:04:12.149Z,19.97
2022-09-13T14:06:38.718Z,19.48
2022-09-13T14:09:05.079Z,19.03
2022-09-13T14:11:31.770Z,19.27
2022-09-13T14:13:58.315Z,20.09
2022-09-13T14:16:27.372Z,19.86
2022-09-13T14:18:58.312Z,20.09
2022-09-13T14:21:24.957Z,19.78
2022-09-13T14:23:51.767Z,19.85
2022-09-13T14:26:18.793Z,20.26
2022-09-13T14:28:45.286Z,20.12
2022-09-13T14:31:11.983Z,20.40
2022-09-13T14:33:38.675Z,19.85
2022-09-13T14:36:05.146Z,19.36
2022-09-13T14:38:31.721Z,19.65
2022-09-13T14:40:58.217Z,20.25
2022-09-13T14:43:24.779Z,20.28
2022-09-13T14:45:51.227Z,20.40
2022-09-13T14:48:17.907Z,20.66
2022-09-13T14:50:44.792Z,20.88
2022-09-13T14:53:11.413Z,21.02
2022-09-13T14:55:37.982Z,21.03
2022-09-13T14:58:04.460Z,21.05
2022-09-13T15:00:31.295Z,21.00
2022-09-13T15:02:58.468Z,20.96
2022-09-13T15:05:25.126Z,20.90
2022-09-13T15:07:51.750Z,20.86
2022-09-13T15:10:18.764Z,20.75
2022-09-13T15:12:45.683Z,20.70
2022-09-13T15:15:12.078Z,20.66
2022-09-13T15:17:38.817Z,20.54
2022-09-13T15:20:06.024Z,20.54
2022-09-13T15:22:33.111Z,20.56
2022-09-13T15:24:59.635Z,20.49
2022-09-13T15:27:26.377Z,20.51
2022-09-13T15:29:53.784Z,20.49
2022-09-13T15:32:20.409Z,20.47
2022-09-13T15:34:46.844Z,20.51
2022-09-13T15:37:13.321Z,20.53
2022-09-13T15:39:40.190Z,20.51
2022-09-13T15:42:06.648Z,20.51
2022-09-13T15:44:33.242Z,20.53
2022-09-13T15:46:59.918Z,20.48
2022-09-13T15:49:26.609Z,20.44
2022-09-13T15:51:53.115Z,20.43
2022-09-13T15:54:20.649Z,20.51
2022-09-13T15:56:47.184Z,20.52
2022-09-13T15:59:13.648Z,19.95
2022-09-13T16:01:40.637Z,19.78
2022-09-13T16:04:07.155Z,20.11
2022-09-13T16:06:33.787Z,19.84
2022-09-13T16:09:00.672Z,19.85
2022-09-13T16:11:27.386Z,19.87
2022-09-13T16:13:53.823Z,19.67
2022-09-13T16:16:20.786Z,19.89
2022-09-13T16:18:47.289Z,19.96
2022-09-13T16:21:13.826Z,19.85
2022-09-13T16:23:40.426Z,20.06
2022-09-13T16:26:06.839Z,20.13
2022-09-13T16:28:33.556Z,20.21
2022-09-13T16:31:00.158Z,20.29
2022-09-13T16:33:26.841Z,20.29
2022-09-13T16:35:53.230Z,20.30
2022-09-13T16:38:20.240Z,20.30
2022-09-13T16:40:46.714Z,20.33
2022-09-13T16:43:13.253Z,20.33
2022-09-13T16:45:39.720Z,20.31
2022-09-13T16:48:06.201Z,20.09
2022-09-13T16:50:35.002Z,20.16
2022-09-13T16:53:02.082Z,20.16
2022-09-13T16:55:28.494Z,20.23
2022-09-13T16:57:55.043Z,20.22
2022-09-13T17:00:21.671Z,20.18
2022-09-13T17:02:48.336Z,20.03
2022-09-13T17:05:15.382Z,20.02
2022-09-13T17:07:42.205Z,20.10
2022-09-13T17:10:08.638Z,20.13
2022-09-13T17:12:35.184Z,20.12
2022-09-13T17:15:01.773Z,20.13
2022-09-13T17:17:28.234Z,20.09
2022-09-13T17:19:54.841Z,20.06
2022-09-13T17:22:21.371Z,19.82
2022-09-13T17:24:47.842Z,19.96
2022-09-13T17:27:14.390Z,19.98
2022-09-13T17:29:40.849Z,20.03
2022-09-13T17:32:07.231Z,19.99
2022-09-13T17:34:33.609Z,19.87
2022-09-13T17:36:59.940Z,19.88
2022-09-13T17:39:26.558Z,19.77
2022-09-13T17:41:53.024Z,19.76
2022-09-13T17:44:19.759Z,19.76
2022-09-13T17:46:46.353Z,19.71
2022-09-13T17:49:14.052Z,19.81
2022-09-13T17:51:40.709Z,19.84
2022-09-13T17:54:07.145Z,19.83
2022-09-13T17:56:33.568Z,19.84
2022-09-13T17:59:00.496Z,19.54
2022-09-13T18:01:26.926Z,19.38
2022-09-13T18:03:53.419Z,19.41
2022-09-13T18:06:20.279Z,19.35
2022-09-13T18:08:46.858Z,19.47
2022-09-13T18:11:14.388Z,19.55
2022-09-13T18:13:41.450Z,19.48
2022-09-13T18:16:08.206Z,19.58
2022-09-13T18:18:34.914Z,19.70
2022-09-13T18:21:02.238Z,19.80
2022-09-13T18:23:29.528Z,19.81
2022-09-13T18:26:00.485Z,19.83
2022-09-13T18:28:29.221Z,19.79
2022-09-13T18:30:56.030Z,19.80
2022-09-13T18:33:22.799Z,19.79
2022-09-13T18:35:49.650Z,19.73
2022-09-13T18:38:16.327Z,19.70
2022-09-13T18:40:43.615Z,19.66
2022-09-13T18:43:10.994Z,19.63
2022-09-13T18:45:37.676Z,19.51
2022-09-13T18:48:04.459Z,19.28
2022-09-13T18:50:31.347Z,19.35
2022-09-13T18:52:58.037Z,19.38
2022-09-13T18:55:24.866Z,19.42
2022-09-13T18:57:51.476Z,19.47
2022-09-13T19:00:18.233Z,19.51
2022-09-13T19:03:08.551Z,19.55
2022-09-13T19:05:32.912Z,19.37
2022-09-13T19:07:59.750Z,19.34
2022-09-13T19:10:28.835Z,19.06
2022-09-13T19:12:56.246Z,18.87
2022-09-13T19:15:23.126Z,18.91
2022-09-13T19:17:50.059Z,18.62
2022-09-13T19:20:17.271Z,18.49
2022-09-13T19:22:44.110Z,18.43
2022-09-13T19:25:10.961Z,18.37
2022-09-13T19:27:38.979Z,18.27
2022-09-13T19:30:06.437Z,18.43
2022-09-13T19:32:34.224Z,18.41
2022-09-13T19:35:01.276Z,18.38
2022-09-13T19:37:30.454Z,18.22
2022-09-13T19:39:57.335Z,18.13
2022-09-13T19:42:24.437Z,17.97
2022-09-13T19:44:54.368Z,17.94
2022-09-13T19:50:09.706Z,18.07
2022-09-13T19:52:39.177Z,18.14
2022-09-13T19:55:06.235Z,18.21
2022-09-13T19:57:33.142Z,18.22
2022-09-13T19:59:59.977Z,18.07
2022-09-13T20:02:28.868Z,18.07
2022-09-13T20:04:55.996Z,18.11
2022-09-13T20:07:22.809Z,17.99
2022-09-13T20:09:50.595Z,17.92
2022-09-13T20:12:17.506Z,17.85
2022-09-13T20:14:44.979Z,17.81
2022-09-13T20:17:12.834Z,17.49
2022-09-13T20:19:43.548Z,17.05
2022-09-13T20:22:12.473Z,17.24
2022-09-13T20:24:39.417Z,17.45
2022-09-13T20:27:06.588Z,17.41
2022-09-13T20:29:33.504Z,17.63
2022-09-13T20:32:02.053Z,17.64
2022-09-13T20:34:29.714Z,17.63
2022-09-13T20:36:56.469Z,17.35
2022-09-13T20:39:23.768Z,17.37
2022-09-13T20:41:50.531Z,17.46
2022-09-13T20:44:17.686Z,17.63
2022-09-13T20:46:44.546Z,17.58
2022-09-13T20:49:11.326Z,17.68
2022-09-13T20:51:38.546Z,17.80
2022-09-13T20:54:06.108Z,17.85
2022-09-13T20:56:32.840Z,17.89
2022-09-13T20:58:59.663Z,17.88
2022-09-13T21:01:26.679Z,17.89
2022-09-13T21:03:54.436Z,17.85
2022-09-13T21:06:21.090Z,17.79
2022-09-13T21:08:48.071Z,17.66
2022-09-13T21:11:15.589Z,17.61
2022-09-13T21:13:42.007Z,17.58
2022-09-13T21:16:11.709Z,17.67
2022-09-13T21:18:38.111Z,17.69
2022-09-13T21:21:04.517Z,17.73
2022-09-13T21:23:31.140Z,17.74
2022-09-13T21:25:57.885Z,17.79
2022-09-13T21:28:24.471Z,17.80
2022-09-13T21:30:51.100Z,17.80
2022-09-13T21:33:27.286Z,17.79
2022-09-13T21:35:55.105Z,17.74
2022-09-13T21:38:23.538Z,17.72
2022-09-13T21:40:52.534Z,17.72
2022-09-13T21:43:19.924Z,17.68
2022-09-13T21:45:46.353Z,17.66
2022-09-13T21:48:12.978Z,17.03
2022-09-13T21:50:40.481Z,17.06
2022-09-13T21:53:06.886Z,17.25
2022-09-13T21:55:33.744Z,17.35
2022-09-13T21:58:00.429Z,17.35
2022-09-13T22:00:27.764Z,17.25
2022-09-13T22:02:55.989Z,17.26
2022-09-13T22:05:23.660Z,17.19
2022-09-13T22:07:50.228Z,17.19
2022-09-13T22:10:17.536Z,17.23
2022-09-13T22:12:44.428Z,17.29
2022-09-13T22:15:15.107Z,17.31
2022-09-13T22:17:41.548Z,17.29
2022-09-13T22:20:12.829Z,17.07
2022-09-13T22:22:39.372Z,17.12
2022-09-13T22:25:06.807Z,17.12
2022-09-13T22:27:33.649Z,16.89
2022-09-13T22:30:04.084Z,17.02
2022-09-13T22:32:30.768Z,17.05
2022-09-13T22:34:57.247Z,17.01
2022-09-13T22:37:23.777Z,17.09
2022-09-13T22:39:50.232Z,16.99
2022-09-13T22:42:16.741Z,17.06
2022-09-13T22:44:43.922Z,17.13
2022-09-13T22:47:10.321Z,17.04
2022-09-13T22:49:37.020Z,17.05
2022-09-13T22:52:03.727Z,17.07
2022-09-13T22:54:30.132Z,17.08
2022-09-13T22:56:56.781Z,17.06
2022-09-13T22:59:23.441Z,17.07
2022-09-13T23:01:49.808Z,17.10
2022-09-13T23:04:16.393Z,17.02
2022-09-13T23:06:42.898Z,17.05
2022-09-13T23:09:09.351Z,16.72
2022-09-13T23:11:36.052Z,16.83
2022-09-13T23:14:02.532Z,16.88
2022-09-13T23:16:28.982Z,16.84
2022-09-13T23:18:55.841Z,16.84
2022-09-13T23:21:22.237Z,16.78
2022-09-13T23:23:48.945Z,16.83
2022-09-13T23:26:15.763Z,16.82
2022-09-13T23:28:43.208Z,16.87
2022-09-13T23:31:09.722Z,16.87
2022-09-13T23:33:36.643Z,16.82
2022-09-13T23:36:06.105Z,16.70
2022-09-13T23:38:32.569Z,16.49
2022-09-13T23:40:59.743Z,16.63
2022-09-13T23:43:26.475Z,16.68
2022-09-13T23:45:52.901Z,16.78
2022-09-13T23:48:19.401Z,16.74
2022-09-13T23:50:46.000Z,16.75
2022-09-13T23:53:12.559Z,16.68
2022-09-13T23:55:39.242Z,16.57
2022-09-13T23:58:05.646Z,16.62
